Nearby METAR Reports

 

KSJC - San Jose, California, USA
Distance from station: NØ 14km
Opdateret: 14/11/2018 20:53
Haze, Delvist skyet
Haze, Delvist skyet
 Vind retning NNV
Vind: NNV 6 km/h
Temperatur: 18°C
Dugpunkt: -1°C
Fugtighed: 28%
Barometer: 1026.4 hPa
Oversigt: Haze
Clouds: Delvist skyet
Visibility: 8 km
Cloud details: Few Clouds 30 m
Few Clouds 244 m
Delvist skyet 610 m
2018/11/14 19:53 KSJC 141953Z 33003KT 5SM HZ FEW001 FEW008 SCT020 18/M01 A3031 RMK AO2 SLP261 FU FEW001 FU FEW008 FU SCT020 T01781006
KNUQ - Moffett Nas/Mtn, California, USA
Distance from station: N 14km
Opdateret: 14/11/2018 20:56
Smoke, Klart
Smoke, Klart
 Vind retning calm
Vind: Vindstille
Temperatur: 17°C
Dugpunkt: -1°C
Fugtighed: 30%
Barometer: 1026.4 hPa
Oversigt: Smoke
Clouds: Klart
Visibility: 5 km
2018/11/14 19:56 KNUQ 141956Z 00000KT 3SM FU CLR 17/M01 A3031 RMK AO2 SLP266 T01721011
 
KPAO - Palo Alto, California, USA
Distance from station: NNV 23km
Opdateret: 14/11/2018 20:47
Smoke, Klart
Smoke, Klart
 Vind retning varies
Vind: varies 7 km/h
Temperatur: 15°C
Dugpunkt: 2°C
Fugtighed: 42%
Barometer: 1026.8 hPa
Oversigt: Smoke
Clouds: Klart
Visibility: 8 km
2018/11/14 19:47 KPAO 141947Z VRB04KT 5SM FU SKC 15/02 A3032 RMK PAEW R RWY31
KRHV - San Jose/Reid, California, USA
Distance from station: ØNØ 19km
Opdateret: 14/11/2018 20:47
Smoke, Klart
Smoke, Klart
 Vind retning calm
Vind: Vindstille
Temperatur: 18°C
Dugpunkt: 1°C
Fugtighed: 32%
Barometer: 1025.7 hPa
Oversigt: Smoke
Clouds: Klart
Visibility: 10 km
2018/11/14 19:47 KRHV 141947Z 00000KT 6SM FU SKC 18/01 A3029
 
KOAK - Oakland, California, USA
Distance from station: NNV 50km
Opdateret: 14/11/2018 20:53
Haze, Delvist skyet
Haze, Delvist skyet
 Vind retning V
Vind: V 11 km/h
Temperatur: 14°C
Dugpunkt: 7°C
Fugtighed: 63%
Barometer: 1026.8 hPa
Oversigt: Haze
Clouds: Delvist skyet
Visibility: 4 km
Cloud details: Delvist skyet 366 m
2018/11/14 19:53 KOAK 141953Z 26006KT 2 1/2SM HZ SCT012 14/07 A3032 RMK AO2 TWR VIS 5 SLP267 FU SCT012 T01440067
KSQL - San Carlos Airpo, California, USA
Distance from station: NV 34km
Opdateret: 14/11/2018 20:55
Smoke, Haze, Klart
Smoke, Haze, Klart
 Vind retning calm
Vind: Vindstille
Temperatur: 16°C
Dugpunkt: 2°C
Fugtighed: 39%
Barometer: 1026.4 hPa
Oversigt: Smoke, Haze
Clouds: Klart
Visibility: 5 km
2018/11/14 19:55 KSQL 141955Z 00000KT 3SM FU HZ SKC 16/02 A3031
 
KSFO - San Francisco, California, USA
Distance from station: NV 49km
Opdateret: 14/11/2018 20:56
Haze, Delvist skyet
Haze, Delvist skyet
 Vind retning NNØ
Vind: NNØ 7 km/h
Temperatur: 15°C
Dugpunkt: 6°C
Fugtighed: 55%
Barometer: 1026.1 hPa
Oversigt: Haze
Clouds: Delvist skyet
Visibility: 6 km
Cloud details: Few Clouds 244 m
Delvist skyet 4877 m
2018/11/14 19:56 KSFO 141956Z 03004KT 4SM HZ FEW008 SCT160 15/06 A3030 RMK AO2 SLP261 T01500056
KE16 - San Martin, California, USA
Distance from station: ØSØ 43km
Opdateret: 14/11/2018 20:45
Klart
Klart
 Vind retning NV
Vind: NV 15 km/h
Temperatur: 19°C
Dugpunkt: -6°C
Fugtighed: 18%
Barometer: 1026.4 hPa
Clouds: Klart
Visibility: 13 km
2018/11/14 19:45 KE16 141945Z AUTO 32008KT 8SM CLR 19/M06 A3031 RMK AO2
 
KWVI - Watsonville, California, USA
Distance from station: SSØ 44km
Opdateret: 14/11/2018 20:53
Klart
Klart
 Vind retning calm
Vind: Vindstille
Temperatur: 22°C
Dugpunkt: -3°C
Fugtighed: 19%
Barometer: 1025.4 hPa
Clouds: Klart
Visibility: 16 km
2018/11/14 19:53 KWVI 141953Z AUTO 00000KT 10SM CLR 22/M03 A3028 RMK AO2 SLP254 T02221033
KHAF - Half Moon Bay, California, USA
Distance from station: VNV 50km
Opdateret: 14/11/2018 21:00
Klart
Klart
 Vind retning VNV
Vind: VNV 13 km/h
Temperatur: 17°C
Dugpunkt: 5°C
Fugtighed: 45%
Barometer: 1026.1 hPa
Clouds: Klart
Visibility: 13 km
2018/11/14 20:00 KHAF 142000Z AUTO 29007KT 8SM CLR 17/05 A3030 RMK AO2
 
KHWD - Hayward, California, USA
Distance from station: N 44km
Opdateret: 14/11/2018 20:54
Haze, Smoke, Klart
Haze, Smoke, Klart
 Vind retning VSV
Vind: VSV 6 km/h
Temperatur: 16°C
Dugpunkt: 3°C
Fugtighed: 42%
Barometer: 1026.4 hPa
Oversigt: Haze, Smoke
Clouds: Klart
Visibility: 5 km
2018/11/14 19:54 KHWD 141954Z 25003KT 3SM HZ FU CLR 16/03 A3031 RMK AO2 SLP272 T01560033 $
KLVK - Livermore, California, USA
Distance from station: NNØ 51km
Opdateret: 14/11/2018 20:53
Haze, Smoke, Klart
Haze, Smoke, Klart
 Vind retning ØNØ
Vind: ØNØ 17 km/h
Temperatur: 19°C
Dugpunkt: -8°C
Fugtighed: 15%
Barometer: 1026.4 hPa
Oversigt: Haze, Smoke
Clouds: Klart
Visibility: 2 km
2018/11/14 19:53 KLVK 141953Z 07009KT 1SM HZ FU CLR 19/M08 A3031 RMK AO2 SLP263 T01891078